createdAt,value
2023-01-25T00:00:44.748Z,1028.48
2023-01-25T00:01:44.782Z,1028.45
2023-01-25T00:02:44.811Z,1028.50
2023-01-25T00:03:44.708Z,1028.44
2023-01-25T00:04:44.722Z,1028.45
2023-01-25T00:05:44.708Z,1028.49
2023-01-25T00:06:44.686Z,1028.50
2023-01-25T00:07:44.665Z,1028.48
2023-01-25T00:08:44.679Z,1028.49
2023-01-25T00:09:44.640Z,1028.46
2023-01-25T00:10:44.635Z,1028.47
2023-01-25T00:11:44.665Z,1028.41
2023-01-25T00:12:44.611Z,1028.42
2023-01-25T00:13:44.593Z,1028.39
2023-01-25T00:14:44.609Z,1028.43
2023-01-25T00:15:44.610Z,1028.43
2023-01-25T00:16:44.647Z,1028.39
2023-01-25T00:17:44.549Z,1028.40
2023-01-25T00:18:44.536Z,1028.41
2023-01-25T00:19:44.542Z,1028.38
2023-01-25T00:20:44.538Z,1028.37
2023-01-25T00:21:44.514Z,1028.41
2023-01-25T00:22:44.499Z,1028.41
2023-01-25T00:23:44.579Z,1028.43
2023-01-25T00:24:44.488Z,1028.44
2023-01-25T00:25:44.474Z,1028.38
2023-01-25T00:26:44.458Z,1028.39
2023-01-25T00:27:44.478Z,1028.40
2023-01-25T00:28:44.439Z,1028.38
2023-01-25T00:29:44.438Z,1028.35
2023-01-25T00:30:44.420Z,1028.31
2023-01-25T00:31:44.509Z,1028.31
2023-01-25T00:32:44.567Z,1028.34
2023-01-25T00:33:44.419Z,1028.32
2023-01-25T00:34:44.389Z,1028.33
2023-01-25T00:35:44.369Z,1028.30
2023-01-25T00:36:44.338Z,1028.31
2023-01-25T00:37:44.359Z,1028.32
2023-01-25T00:38:44.331Z,1028.31
2023-01-25T00:39:44.362Z,1028.31
2023-01-25T00:40:44.293Z,1028.33
2023-01-25T00:41:44.292Z,1028.32
2023-01-25T00:42:44.287Z,1028.30
2023-01-25T00:43:44.307Z,1028.29
2023-01-25T00:44:44.255Z,1028.28
2023-01-25T00:45:44.313Z,1028.26
2023-01-25T00:46:44.245Z,1028.27
2023-01-25T00:47:44.229Z,1028.26
2023-01-25T00:48:44.222Z,1028.25
2023-01-25T00:49:44.195Z,1028.23
2023-01-25T00:50:44.189Z,1028.24
2023-01-25T00:51:44.178Z,1028.26
2023-01-25T00:52:44.178Z,1028.20
2023-01-25T00:53:44.161Z,1028.21
2023-01-25T00:54:44.157Z,1028.18
2023-01-25T00:55:44.136Z,1028.17
2023-01-25T00:56:44.139Z,1028.18
2023-01-25T00:57:44.110Z,1028.19
2023-01-25T00:58:44.109Z,1028.19
2023-01-25T00:59:44.133Z,1028.17
2023-01-25T01:00:44.094Z,1028.19
2023-01-25T01:01:44.064Z,1028.15
2023-01-25T01:02:44.060Z,1028.15
2023-01-25T01:03:44.057Z,1028.17
2023-01-25T01:04:44.095Z,1028.14
2023-01-25T01:05:44.017Z,1028.12
2023-01-25T01:06:44.002Z,1028.14
2023-01-25T01:07:44.026Z,1028.10
2023-01-25T01:08:44.000Z,1028.12
2023-01-25T01:09:43.972Z,1028.12
2023-01-25T01:10:43.963Z,1028.11
2023-01-25T01:11:43.952Z,1028.12
2023-01-25T01:12:43.948Z,1028.12
2023-01-25T01:13:43.969Z,1028.12
2023-01-25T01:14:43.924Z,1028.13
2023-01-25T01:15:43.931Z,1028.12
2023-01-25T01:16:44.036Z,1028.10
2023-01-25T01:17:43.879Z,1028.11
2023-01-25T01:18:43.871Z,1028.07
2023-01-25T01:19:43.872Z,1028.09
2023-01-25T01:20:43.860Z,1028.06
2023-01-25T01:21:43.835Z,1028.07
2023-01-25T01:22:43.827Z,1028.06
2023-01-25T01:23:43.877Z,1028.05
2023-01-25T01:24:43.818Z,1028.02
2023-01-25T01:25:43.829Z,1028.10
2023-01-25T01:26:43.802Z,1028.06
2023-01-25T01:27:43.768Z,1028.03
2023-01-25T01:28:43.772Z,1028.03
2023-01-25T01:29:43.760Z,1027.96
2023-01-25T01:30:43.747Z,1028.01
2023-01-25T01:31:43.989Z,1027.99
2023-01-25T01:32:44.004Z,1027.97
2023-01-25T01:33:43.701Z,1027.99
2023-01-25T01:34:43.709Z,1028.02
2023-01-25T01:35:43.678Z,1027.98
2023-01-25T01:36:43.705Z,1027.97
2023-01-25T01:37:43.677Z,1027.98
2023-01-25T01:38:43.676Z,1027.98
2023-01-25T01:39:43.684Z,1027.99
2023-01-25T01:40:43.624Z,1027.96
2023-01-25T01:41:43.627Z,1028.00
2023-01-25T01:42:43.621Z,1027.97
2023-01-25T01:43:43.614Z,1028.00
2023-01-25T01:44:43.592Z,1027.98
2023-01-25T01:45:43.655Z,1028.00
2023-01-25T01:46:43.557Z,1028.00
2023-01-25T01:47:43.585Z,1028.01
2023-01-25T01:48:43.534Z,1027.97
2023-01-25T01:49:43.536Z,1027.99
2023-01-25T01:50:43.524Z,1028.01
2023-01-25T01:51:43.513Z,1028.04
2023-01-25T01:52:43.504Z,1028.00
2023-01-25T01:53:43.498Z,1028.06
2023-01-25T01:54:43.494Z,1028.03
2023-01-25T01:55:43.469Z,1028.00
2023-01-25T01:56:43.458Z,1028.03
2023-01-25T01:57:43.435Z,1028.00
2023-01-25T01:58:43.444Z,1028.01
2023-01-25T01:59:43.425Z,1028.01
2023-01-25T02:00:43.437Z,1027.98
2023-01-25T02:01:43.559Z,1027.97
2023-01-25T02:02:43.509Z,1028.03
2023-01-25T02:03:43.407Z,1028.00
2023-01-25T02:04:43.373Z,1028.02
2023-01-25T02:05:43.372Z,1027.99
2023-01-25T02:06:43.339Z,1028.01
2023-01-25T02:07:43.344Z,1027.96
2023-01-25T02:08:43.349Z,1027.97
2023-01-25T02:09:43.317Z,1028.01
2023-01-25T02:10:43.293Z,1027.97
2023-01-25T02:11:43.283Z,1027.97
2023-01-25T02:12:43.303Z,1027.96
2023-01-25T02:13:43.306Z,1027.97
2023-01-25T02:14:43.250Z,1027.99
2023-01-25T02:15:43.309Z,1027.94
2023-01-25T02:16:43.233Z,1027.96
2023-01-25T02:17:43.226Z,1027.95
2023-01-25T02:18:43.214Z,1027.97
2023-01-25T02:19:43.230Z,1027.95
2023-01-25T02:20:43.211Z,1027.92
2023-01-25T02:21:43.219Z,1027.91
2023-01-25T02:22:43.179Z,1027.93
2023-01-25T02:23:43.157Z,1027.91
2023-01-25T02:24:43.151Z,1027.90
2023-01-25T02:25:43.143Z,1027.87
2023-01-25T02:26:43.121Z,1027.91
2023-01-25T02:27:43.152Z,1027.92
2023-01-25T02:28:43.096Z,1027.93
2023-01-25T02:29:43.104Z,1027.89
2023-01-25T02:30:43.151Z,1027.89
2023-01-25T02:31:43.232Z,1027.88
2023-01-25T02:32:43.062Z,1027.92
2023-01-25T02:33:43.060Z,1027.90
2023-01-25T02:34:43.044Z,1027.86
2023-01-25T02:35:43.063Z,1027.89
2023-01-25T02:36:43.008Z,1027.85
2023-01-25T02:37:43.012Z,1027.86
2023-01-25T02:38:42.989Z,1027.88
2023-01-25T02:39:42.978Z,1027.86
2023-01-25T02:40:42.975Z,1027.88
2023-01-25T02:41:42.973Z,1027.82
2023-01-25T02:42:42.971Z,1027.83
2023-01-25T02:43:42.943Z,1027.79
2023-01-25T02:44:42.947Z,1027.80
2023-01-25T02:45:42.917Z,1027.81
2023-01-25T02:46:42.906Z,1027.87
2023-01-25T02:47:42.887Z,1027.83
2023-01-25T02:48:42.873Z,1027.76
2023-01-25T02:49:42.884Z,1027.81
2023-01-25T02:50:42.844Z,1027.84
2023-01-25T02:51:42.879Z,1027.85
2023-01-25T02:52:42.841Z,1027.84
2023-01-25T02:53:42.813Z,1027.78
2023-01-25T02:54:42.802Z,1027.83
2023-01-25T02:55:42.821Z,1027.80
2023-01-25T02:56:42.795Z,1027.76
2023-01-25T02:57:42.785Z,1027.79
2023-01-25T02:58:42.772Z,1027.75
2023-01-25T02:59:42.748Z,1027.73
2023-01-25T03:00:42.738Z,1027.80
2023-01-25T03:01:42.848Z,1027.79
2023-01-25T03:02:42.809Z,1027.76
2023-01-25T03:03:42.702Z,1027.81
2023-01-25T03:04:42.722Z,1027.78
2023-01-25T03:05:42.687Z,1027.82
2023-01-25T03:06:42.676Z,1027.78
2023-01-25T03:07:42.704Z,1027.77
2023-01-25T03:08:42.643Z,1027.78
2023-01-25T03:09:42.650Z,1027.78
2023-01-25T03:10:42.641Z,1027.78
2023-01-25T03:11:42.614Z,1027.78
2023-01-25T03:12:42.615Z,1027.79
2023-01-25T03:13:42.585Z,1027.74
2023-01-25T03:14:42.604Z,1027.74
2023-01-25T03:15:42.563Z,1027.72
2023-01-25T03:16:42.557Z,1027.74
2023-01-25T03:17:42.548Z,1027.69
2023-01-25T03:18:42.543Z,1027.70
2023-01-25T03:19:42.525Z,1027.73
2023-01-25T03:20:42.524Z,1027.69
2023-01-25T03:21:42.517Z,1027.70
2023-01-25T03:22:42.502Z,1027.69
2023-01-25T03:23:42.536Z,1027.68
2023-01-25T03:24:42.467Z,1027.70
2023-01-25T03:25:42.481Z,1027.71
2023-01-25T03:26:42.473Z,1027.67
2023-01-25T03:27:42.432Z,1027.69
2023-01-25T03:28:42.419Z,1027.68
2023-01-25T03:29:42.422Z,1027.64
2023-01-25T03:30:42.396Z,1027.68
2023-01-25T03:31:42.570Z,1027.65
2023-01-25T03:32:42.413Z,1027.67
2023-01-25T03:33:42.381Z,1027.69
2023-01-25T03:34:42.380Z,1027.67
2023-01-25T03:35:42.347Z,1027.67
2023-01-25T03:36:42.349Z,1027.69
2023-01-25T03:37:42.337Z,1027.66
2023-01-25T03:38:42.340Z,1027.67
2023-01-25T03:39:42.338Z,1027.63
2023-01-25T03:40:42.301Z,1027.64
2023-01-25T03:41:42.285Z,1027.62
2023-01-25T03:42:42.268Z,1027.61
2023-01-25T03:43:42.257Z,1027.64
2023-01-25T03:44:42.265Z,1027.59
2023-01-25T03:45:42.252Z,1027.57
2023-01-25T03:46:42.332Z,1027.60
2023-01-25T03:47:42.226Z,1027.60
2023-01-25T03:48:42.214Z,1027.55
2023-01-25T03:49:42.197Z,1027.55
2023-01-25T03:50:42.192Z,1027.59
2023-01-25T03:51:42.193Z,1027.57
2023-01-25T03:52:42.185Z,1027.59
2023-01-25T03:53:42.153Z,1027.57
2023-01-25T03:54:42.159Z,1027.60
2023-01-25T03:55:42.146Z,1027.57
2023-01-25T03:56:42.128Z,1027.55
2023-01-25T03:57:42.119Z,1027.56
2023-01-25T03:58:42.102Z,1027.50
2023-01-25T03:59:42.093Z,1027.51
2023-01-25T04:00:42.126Z,1027.47
2023-01-25T04:01:42.063Z,1027.47
2023-01-25T04:02:42.131Z,1027.51
2023-01-25T04:03:42.043Z,1027.47
2023-01-25T04:04:42.022Z,1027.51
2023-01-25T04:05:42.017Z,1027.51
2023-01-25T04:06:42.002Z,1027.50
2023-01-25T04:07:41.994Z,1027.51
2023-01-25T04:08:42.014Z,1027.54
2023-01-25T04:09:41.982Z,1027.48
2023-01-25T04:10:41.957Z,1027.47
2023-01-25T04:11:41.993Z,1027.46
2023-01-25T04:12:41.953Z,1027.44
2023-01-25T04:13:41.942Z,1027.43
2023-01-25T04:14:44.672Z,1027.44
2023-01-25T04:15:41.941Z,1027.40
2023-01-25T04:16:41.933Z,1027.37
2023-01-25T04:17:41.884Z,1027.35
2023-01-25T04:18:41.892Z,1027.40
2023-01-25T04:19:41.868Z,1027.37
2023-01-25T04:20:42.439Z,1027.33
2023-01-25T04:21:41.854Z,1027.39
2023-01-25T04:22:41.823Z,1027.34
2023-01-25T04:23:41.820Z,1027.30
2023-01-25T04:24:41.823Z,1027.27
2023-01-25T04:25:41.783Z,1027.27
2023-01-25T04:26:41.793Z,1027.23
2023-01-25T04:27:41.819Z,1027.24
2023-01-25T04:28:41.760Z,1027.23
2023-01-25T04:29:42.198Z,1027.19
2023-01-25T04:30:41.745Z,1027.21
2023-01-25T04:31:41.923Z,1027.18
2023-01-25T04:32:41.862Z,1027.14
2023-01-25T04:33:41.735Z,1027.16
2023-01-25T04:34:41.682Z,1027.12
2023-01-25T04:35:41.676Z,1027.15
2023-01-25T04:36:41.660Z,1027.09
2023-01-25T04:37:41.675Z,1027.10
2023-01-25T04:38:41.655Z,1027.16
2023-01-25T04:39:41.637Z,1027.14
2023-01-25T04:40:41.620Z,1027.13
2023-01-25T04:41:43.733Z,1027.13
2023-01-25T04:42:41.613Z,1027.10
2023-01-25T04:43:41.613Z,1027.07
2023-01-25T04:44:41.591Z,1027.05
2023-01-25T04:45:41.660Z,1027.05
2023-01-25T04:46:41.553Z,1027.06
2023-01-25T04:47:41.550Z,1027.01
2023-01-25T04:48:41.540Z,1027.04
2023-01-25T04:49:41.519Z,1027.00
2023-01-25T04:50:41.510Z,1027.05
2023-01-25T04:51:41.528Z,1027.01
2023-01-25T04:52:41.489Z,1027.02
2023-01-25T04:53:41.493Z,1027.03
2023-01-25T04:54:41.490Z,1027.00
2023-01-25T04:55:41.463Z,1027.00
2023-01-25T04:56:41.451Z,1027.04
2023-01-25T04:57:41.452Z,1027.01
2023-01-25T04:58:41.421Z,1027.05
2023-01-25T04:59:41.428Z,1027.01
2023-01-25T05:00:41.428Z,1026.98
2023-01-25T05:01:41.387Z,1026.98
2023-01-25T05:02:41.481Z,1026.97
2023-01-25T05:03:41.397Z,1027.00
2023-01-25T05:04:41.350Z,1026.98
2023-01-25T05:05:41.356Z,1026.96
2023-01-25T05:06:41.344Z,1026.93
2023-01-25T05:07:41.341Z,1026.97
2023-01-25T05:08:41.331Z,1026.92
2023-01-25T05:09:41.306Z,1026.89
2023-01-25T05:10:41.288Z,1026.90
2023-01-25T05:11:41.282Z,1026.90
2023-01-25T05:12:41.278Z,1026.90
2023-01-25T05:13:41.249Z,1026.89
2023-01-25T05:14:41.264Z,1026.95
2023-01-25T05:15:41.271Z,1026.91
2023-01-25T05:16:41.290Z,1026.89
2023-01-25T05:17:41.207Z,1026.93
2023-01-25T05:18:48.495Z,1026.91
2023-01-25T05:19:42.190Z,1026.88
2023-01-25T05:20:41.197Z,1026.94
2023-01-25T05:21:42.516Z,1026.90
2023-01-25T05:22:41.162Z,1026.94
2023-01-25T05:23:41.149Z,1026.92
2023-01-25T05:24:41.151Z,1026.90
2023-01-25T05:25:41.119Z,1026.86
2023-01-25T05:26:41.117Z,1026.91
2023-01-25T05:27:41.098Z,1026.87
2023-01-25T05:28:41.086Z,1026.87
2023-01-25T05:29:41.079Z,1026.85
2023-01-25T05:30:41.126Z,1026.85
2023-01-25T05:31:41.133Z,1026.85
2023-01-25T05:32:41.039Z,1026.84
2023-01-25T05:33:41.029Z,1026.81
2023-01-25T05:34:41.023Z,1026.84
2023-01-25T05:35:40.999Z,1026.83
2023-01-25T05:36:41.009Z,1026.83
2023-01-25T05:37:40.999Z,1026.82
2023-01-25T05:38:40.981Z,1026.78
2023-01-25T05:39:40.973Z,1026.76
2023-01-25T05:40:40.950Z,1026.75
2023-01-25T05:41:40.952Z,1026.77
2023-01-25T05:42:40.976Z,1026.75
2023-01-25T05:43:40.928Z,1026.76
2023-01-25T05:44:40.918Z,1026.69
2023-01-25T05:45:41.044Z,1026.76
2023-01-25T05:46:40.881Z,1026.69
2023-01-25T05:47:40.903Z,1026.74
2023-01-25T05:48:40.866Z,1026.76
2023-01-25T05:49:40.848Z,1026.74
2023-01-25T05:50:40.841Z,1026.72
2023-01-25T05:51:40.824Z,1026.70
2023-01-25T05:52:40.815Z,1026.73
2023-01-25T05:53:40.802Z,1026.70
2023-01-25T05:54:40.801Z,1026.72
2023-01-25T05:55:40.800Z,1026.72
2023-01-25T05:56:40.770Z,1026.68
2023-01-25T05:57:40.767Z,1026.68
2023-01-25T05:58:40.743Z,1026.68
2023-01-25T05:59:40.735Z,1026.68
2023-01-25T06:00:40.737Z,1026.67
2023-01-25T06:01:40.738Z,1026.68
2023-01-25T06:02:40.817Z,1026.64
2023-01-25T06:03:40.780Z,1026.62
2023-01-25T06:04:40.715Z,1026.64
2023-01-25T06:05:40.694Z,1026.70
2023-01-25T06:06:40.654Z,1026.66
2023-01-25T06:07:40.667Z,1026.67
2023-01-25T06:08:40.687Z,1026.69
2023-01-25T06:09:40.655Z,1026.63
2023-01-25T06:10:40.696Z,1026.63
2023-01-25T06:11:40.600Z,1026.61
2023-01-25T06:12:40.617Z,1026.61
2023-01-25T06:13:40.633Z,1026.62
2023-01-25T06:14:40.595Z,1026.61
2023-01-25T06:15:40.616Z,1026.56
2023-01-25T06:16:40.616Z,1026.59
2023-01-25T06:17:40.546Z,1026.53
2023-01-25T06:18:40.567Z,1026.53
2023-01-25T06:19:40.569Z,1026.50
2023-01-25T06:20:40.516Z,1026.52
2023-01-25T06:21:40.502Z,1026.53
2023-01-25T06:22:40.489Z,1026.53
2023-01-25T06:23:40.504Z,1026.54
2023-01-25T06:24:40.474Z,1026.55
2023-01-25T06:25:40.447Z,1026.48
2023-01-25T06:26:40.430Z,1026.51
2023-01-25T06:27:40.472Z,1026.52
2023-01-25T06:28:40.456Z,1026.51
2023-01-25T06:29:40.432Z,1026.53
2023-01-25T06:30:40.386Z,1026.54
2023-01-25T06:31:40.496Z,1026.52
2023-01-25T06:32:40.365Z,1026.52
2023-01-25T06:33:40.409Z,1026.56
2023-01-25T06:34:40.473Z,1026.54
2023-01-25T06:35:40.374Z,1026.52
2023-01-25T06:36:40.332Z,1026.53
2023-01-25T06:37:40.351Z,1026.52
2023-01-25T06:38:40.317Z,1026.51
2023-01-25T06:39:40.319Z,1026.50
2023-01-25T06:40:40.344Z,1026.50
2023-01-25T06:41:40.344Z,1026.46
2023-01-25T06:42:40.298Z,1026.43
2023-01-25T06:43:40.291Z,1026.44
2023-01-25T06:44:40.247Z,1026.45
2023-01-25T06:45:40.243Z,1026.43
2023-01-25T06:46:40.356Z,1026.41
2023-01-25T06:47:40.229Z,1026.45
2023-01-25T06:48:40.215Z,1026.40
2023-01-25T06:49:40.193Z,1026.48
2023-01-25T06:50:40.227Z,1026.44
2023-01-25T06:51:40.202Z,1026.44
2023-01-25T06:52:40.221Z,1026.45
2023-01-25T06:53:40.134Z,1026.45
2023-01-25T06:54:40.135Z,1026.46
2023-01-25T06:55:40.117Z,1026.44
2023-01-25T06:56:40.155Z,1026.40
2023-01-25T06:57:40.133Z,1026.46
2023-01-25T06:58:40.121Z,1026.46
2023-01-25T06:59:40.071Z,1026.43
2023-01-25T07:00:40.081Z,1026.42
2023-01-25T07:01:40.135Z,1026.44
2023-01-25T07:02:40.125Z,1026.49
2023-01-25T07:03:42.977Z,1026.49
2023-01-25T07:04:40.029Z,1026.48
2023-01-25T07:05:40.004Z,1026.47
2023-01-25T07:06:40.012Z,1026.46
2023-01-25T07:07:40.537Z,1026.43
2023-01-25T07:08:40.060Z,1026.44
2023-01-25T07:09:39.967Z,1026.44
2023-01-25T07:10:39.935Z,1026.47
2023-01-25T07:11:39.958Z,1026.48
2023-01-25T07:12:39.939Z,1026.49
2023-01-25T07:13:39.931Z,1026.47
2023-01-25T07:14:39.917Z,1026.48
2023-01-25T07:15:39.909Z,1026.49
2023-01-25T07:16:39.888Z,1026.48
2023-01-25T07:17:39.962Z,1026.47
2023-01-25T07:18:39.870Z,1026.49
2023-01-25T07:19:39.857Z,1026.48
2023-01-25T07:20:39.922Z,1026.48
2023-01-25T07:21:39.847Z,1026.47
2023-01-25T07:22:39.828Z,1026.49
2023-01-25T07:23:39.817Z,1026.51
2023-01-25T07:24:39.783Z,1026.51
2023-01-25T07:25:39.782Z,1026.57
2023-01-25T07:26:39.888Z,1026.55
2023-01-25T07:27:39.750Z,1026.51
2023-01-25T07:28:39.761Z,1026.53
2023-01-25T07:29:39.758Z,1026.53
2023-01-25T07:30:39.760Z,1026.56
2023-01-25T07:31:39.828Z,1026.55
2023-01-25T07:32:39.764Z,1026.52
2023-01-25T07:33:39.684Z,1026.52
2023-01-25T07:34:39.686Z,1026.54
2023-01-25T07:35:39.722Z,1026.59
2023-01-25T07:36:39.661Z,1026.58
2023-01-25T07:37:39.646Z,1026.54
2023-01-25T07:38:39.684Z,1026.53
2023-01-25T07:39:39.666Z,1026.59
2023-01-25T07:40:39.672Z,1026.60
2023-01-25T07:41:39.602Z,1026.59
2023-01-25T07:42:39.595Z,1026.51
2023-01-25T07:43:39.583Z,1026.55
2023-01-25T07:44:39.576Z,1026.57
2023-01-25T07:45:39.565Z,1026.59
2023-01-25T07:46:39.556Z,1026.56
2023-01-25T07:47:39.535Z,1026.58
2023-01-25T07:48:39.566Z,1026.58
2023-01-25T07:49:39.558Z,1026.56
2023-01-25T07:50:39.526Z,1026.60
2023-01-25T07:51:39.493Z,1026.56
2023-01-25T07:52:39.473Z,1026.58
2023-01-25T07:53:39.498Z,1026.50
2023-01-25T07:54:39.522Z,1026.52
2023-01-25T07:55:39.484Z,1026.49
2023-01-25T07:56:39.433Z,1026.50
2023-01-25T07:57:39.426Z,1026.47
2023-01-25T07:58:39.436Z,1026.51
2023-01-25T07:59:39.473Z,1026.51
2023-01-25T08:00:39.434Z,1026.48
2023-01-25T08:01:39.407Z,1026.51
2023-01-25T08:02:39.358Z,1026.50
2023-01-25T08:03:39.365Z,1026.52
2023-01-25T08:04:39.356Z,1026.51
2023-01-25T08:05:40.133Z,1026.51
2023-01-25T08:06:39.642Z,1026.56
2023-01-25T08:07:39.335Z,1026.51
2023-01-25T08:08:39.315Z,1026.53
2023-01-25T08:09:39.306Z,1026.55
2023-01-25T08:10:39.278Z,1026.54
2023-01-25T08:11:39.313Z,1026.57
2023-01-25T08:12:39.243Z,1026.57
2023-01-25T08:13:39.260Z,1026.60
2023-01-25T08:14:39.251Z,1026.60
2023-01-25T08:15:39.241Z,1026.63
2023-01-25T08:16:39.277Z,1026.59
2023-01-25T08:17:39.220Z,1026.63
2023-01-25T08:18:39.201Z,1026.60
2023-01-25T08:19:39.221Z,1026.60
2023-01-25T08:20:39.155Z,1026.55
2023-01-25T08:21:39.263Z,1026.63
2023-01-25T08:22:39.180Z,1026.52
2023-01-25T08:23:39.158Z,1026.59
2023-01-25T08:24:39.333Z,1026.50
2023-01-25T08:25:39.104Z,1026.49
2023-01-25T08:26:39.106Z,1026.51
2023-01-25T08:27:39.145Z,1026.45
2023-01-25T08:28:39.318Z,1026.46
2023-01-25T08:29:39.164Z,1026.45
2023-01-25T08:30:45.797Z,1026.47
2023-01-25T08:31:40.271Z,1026.47
2023-01-25T08:32:39.041Z,1026.46
2023-01-25T08:33:39.137Z,1026.44
2023-01-25T08:34:39.045Z,1026.48
2023-01-25T08:35:39.003Z,1026.41
2023-01-25T08:36:39.154Z,1026.44
2023-01-25T08:37:38.989Z,1026.48
2023-01-25T08:38:39.202Z,1026.44
2023-01-25T08:39:38.946Z,1026.48
2023-01-25T08:40:38.975Z,1026.41
2023-01-25T08:41:38.996Z,1026.48
2023-01-25T08:42:38.957Z,1026.46
2023-01-25T08:43:38.939Z,1026.44
2023-01-25T08:44:38.966Z,1026.47
2023-01-25T08:45:38.902Z,1026.44
2023-01-25T08:46:38.904Z,1026.44
2023-01-25T08:47:38.889Z,1026.43
2023-01-25T08:48:39.424Z,1026.47
2023-01-25T08:49:38.904Z,1026.46
2023-01-25T08:50:38.921Z,1026.41
2023-01-25T08:51:38.814Z,1026.37
2023-01-25T08:52:38.826Z,1026.40
2023-01-25T08:53:38.811Z,1026.33
2023-01-25T08:54:38.922Z,1026.30
2023-01-25T08:55:38.786Z,1026.29
2023-01-25T08:56:38.791Z,1026.36
2023-01-25T08:57:38.765Z,1026.35
2023-01-25T08:58:38.739Z,1026.30
2023-01-25T08:59:39.014Z,1026.32
2023-01-25T09:00:38.732Z,1026.29
2023-01-25T09:01:39.529Z,1026.24
2023-01-25T09:02:38.716Z,1026.26
2023-01-25T09:03:38.786Z,1026.27
2023-01-25T09:04:38.675Z,1026.22
2023-01-25T09:05:38.666Z,1026.25
2023-01-25T09:06:38.668Z,1026.22
2023-01-25T09:07:38.663Z,1026.23
2023-01-25T09:08:38.722Z,1026.17
2023-01-25T09:09:38.635Z,1026.18
2023-01-25T09:10:38.612Z,1026.17
2023-01-25T09:11:38.593Z,1026.19
2023-01-25T09:12:38.598Z,1026.22
2023-01-25T09:13:38.601Z,1026.19
2023-01-25T09:14:38.624Z,1026.21
2023-01-25T09:15:38.989Z,1026.19
2023-01-25T09:16:38.670Z,1026.20
2023-01-25T09:17:38.553Z,1026.18
2023-01-25T09:18:38.548Z,1026.20
2023-01-25T09:19:38.533Z,1026.18
2023-01-25T09:20:38.531Z,1026.14
2023-01-25T09:21:38.521Z,1026.15
2023-01-25T09:22:38.462Z,1026.17
2023-01-25T09:23:50.842Z,1026.12
2023-01-25T09:24:39.490Z,1026.13
2023-01-25T09:25:38.552Z,1026.10
2023-01-25T09:26:38.447Z,1026.07
2023-01-25T09:27:38.465Z,1026.08
2023-01-25T09:28:38.428Z,1026.07
2023-01-25T09:29:39.683Z,1026.07
2023-01-25T09:30:47.368Z,1026.07
2023-01-25T09:31:39.616Z,1026.09
2023-01-25T09:32:38.560Z,1026.09
2023-01-25T09:33:38.925Z,1026.08
2023-01-25T09:34:38.343Z,1026.11
2023-01-25T09:35:38.360Z,1026.12
2023-01-25T09:36:38.327Z,1026.06
2023-01-25T09:37:38.314Z,1026.06
2023-01-25T09:38:38.352Z,1026.04
2023-01-25T09:39:38.315Z,1026.02
2023-01-25T09:40:38.309Z,1026.04
2023-01-25T09:41:38.334Z,1026.09
2023-01-25T09:42:38.272Z,1026.08
2023-01-25T09:43:38.245Z,1026.03
2023-01-25T09:44:38.246Z,1026.05
2023-01-25T09:45:38.258Z,1025.99
2023-01-25T09:46:38.318Z,1025.94
2023-01-25T09:47:38.241Z,1025.94
2023-01-25T09:48:38.216Z,1025.93
2023-01-25T09:49:38.292Z,1025.92
2023-01-25T09:50:38.177Z,1025.95
2023-01-25T09:51:38.149Z,1025.88
2023-01-25T09:52:38.162Z,1025.90
2023-01-25T09:53:38.469Z,1025.89
2023-01-25T09:54:46.545Z,1025.90
2023-01-25T09:55:39.103Z,1025.92
2023-01-25T09:56:38.139Z,1025.90
2023-01-25T09:57:38.109Z,1025.91
2023-01-25T09:58:38.103Z,1025.86
2023-01-25T09:59:38.056Z,1025.87
2023-01-25T10:00:38.110Z,1025.87
2023-01-25T10:01:39.316Z,1025.86
2023-01-25T10:02:38.166Z,1025.85
2023-01-25T10:03:38.044Z,1025.82
2023-01-25T10:04:38.015Z,1025.84
2023-01-25T10:05:38.091Z,1025.82
2023-01-25T10:06:38.656Z,1025.82
2023-01-25T10:07:38.003Z,1025.80
2023-01-25T10:08:37.956Z,1025.81
2023-01-25T10:09:37.972Z,1025.76
2023-01-25T10:10:37.958Z,1025.70
2023-01-25T10:11:37.946Z,1025.70
2023-01-25T10:12:37.928Z,1025.72
2023-01-25T10:13:37.928Z,1025.65
2023-01-25T10:14:37.903Z,1025.65
2023-01-25T10:15:37.936Z,1025.59
2023-01-25T10:16:37.944Z,1025.68
2023-01-25T10:17:37.877Z,1025.69
2023-01-25T10:18:37.959Z,1025.61
2023-01-25T10:19:37.870Z,1025.59
2023-01-25T10:20:37.828Z,1025.61
2023-01-25T10:21:37.842Z,1025.63
2023-01-25T10:22:38.413Z,1025.63
2023-01-25T10:23:37.839Z,1025.60
2023-01-25T10:24:37.797Z,1025.59
2023-01-25T10:25:37.788Z,1025.54
2023-01-25T10:26:38.405Z,1025.58
2023-01-25T10:27:37.762Z,1025.53
2023-01-25T10:28:37.769Z,1025.54
2023-01-25T10:29:37.742Z,1025.55
2023-01-25T10:30:37.724Z,1025.52
2023-01-25T10:31:37.808Z,1025.49
2023-01-25T10:32:47.561Z,1025.48
2023-01-25T10:33:40.076Z,1025.49
2023-01-25T10:34:54.373Z,1025.48
2023-01-25T10:35:43.183Z,1025.39
2023-01-25T10:36:38.680Z,1025.42
2023-01-25T10:37:37.630Z,1025.37
2023-01-25T10:38:37.641Z,1025.35
2023-01-25T10:39:37.645Z,1025.36
2023-01-25T10:40:37.620Z,1025.37
2023-01-25T10:41:37.619Z,1025.33
2023-01-25T10:42:37.650Z,1025.34
2023-01-25T10:43:37.648Z,1025.36
2023-01-25T10:44:37.588Z,1025.33
2023-01-25T10:45:37.557Z,1025.30
2023-01-25T10:46:37.609Z,1025.30
2023-01-25T10:47:37.637Z,1025.27
2023-01-25T10:48:37.505Z,1025.24
2023-01-25T10:49:37.551Z,1025.29
2023-01-25T10:50:37.488Z,1025.27
2023-01-25T10:51:37.509Z,1025.28
2023-01-25T10:52:37.473Z,1025.29
2023-01-25T10:53:37.609Z,1025.23
2023-01-25T10:54:37.490Z,1025.21
2023-01-25T10:55:37.452Z,1025.24
2023-01-25T10:56:37.427Z,1025.21
2023-01-25T10:57:37.413Z,1025.18
2023-01-25T10:58:37.442Z,1025.15
2023-01-25T10:59:37.395Z,1025.11
2023-01-25T11:00:37.415Z,1025.08
2023-01-25T11:01:37.402Z,1025.07
2023-01-25T11:02:37.457Z,1025.06
2023-01-25T11:03:37.600Z,1025.03
2023-01-25T11:04:37.350Z,1025.04
2023-01-25T11:05:37.365Z,1025.07
2023-01-25T11:06:37.335Z,1025.00
2023-01-25T11:07:37.340Z,1025.00
2023-01-25T11:08:37.336Z,1024.99
2023-01-25T11:09:37.303Z,1024.96
2023-01-25T11:10:37.278Z,1024.96
2023-01-25T11:11:39.352Z,1025.00
2023-01-25T11:12:37.254Z,1025.01
2023-01-25T11:13:37.250Z,1024.93
2023-01-25T11:14:37.219Z,1024.95
2023-01-25T11:15:37.304Z,1024.97
2023-01-25T11:16:37.261Z,1024.95
2023-01-25T11:17:37.220Z,1024.91
2023-01-25T11:18:37.194Z,1024.91
2023-01-25T11:19:37.175Z,1024.89
2023-01-25T11:20:37.144Z,1024.93
2023-01-25T11:21:37.158Z,1024.89
2023-01-25T11:22:37.166Z,1024.86
2023-01-25T11:23:37.268Z,1024.86
2023-01-25T11:24:37.122Z,1024.84
2023-01-25T11:25:37.127Z,1024.78
2023-01-25T11:26:37.132Z,1024.82
2023-01-25T11:27:37.124Z,1024.83
2023-01-25T11:28:37.076Z,1024.83
2023-01-25T11:29:37.050Z,1024.83
2023-01-25T11:30:37.157Z,1024.79
2023-01-25T11:31:37.257Z,1024.77
2023-01-25T11:32:37.482Z,1024.78
2023-01-25T11:33:37.122Z,1024.78
2023-01-25T11:34:37.036Z,1024.77
2023-01-25T11:35:37.020Z,1024.72
2023-01-25T11:36:36.971Z,1024.75
2023-01-25T11:37:37.013Z,1024.68
2023-01-25T11:38:36.986Z,1024.71
2023-01-25T11:39:37.008Z,1024.69
2023-01-25T11:40:36.977Z,1024.67
2023-01-25T11:41:37.022Z,1024.62
2023-01-25T11:42:36.925Z,1024.63
2023-01-25T11:43:36.902Z,1024.60
2023-01-25T11:44:36.964Z,1024.60
2023-01-25T11:45:36.926Z,1024.59
2023-01-25T11:46:39.589Z,1024.54
2023-01-25T11:47:36.865Z,1024.56
2023-01-25T11:48:36.860Z,1024.55
2023-01-25T11:49:36.917Z,1024.53
2023-01-25T11:50:36.830Z,1024.53
2023-01-25T11:51:36.998Z,1024.45
2023-01-25T11:52:36.825Z,1024.53
2023-01-25T11:53:36.789Z,1024.43
2023-01-25T11:54:36.775Z,1024.40
2023-01-25T11:55:36.895Z,1024.42
2023-01-25T11:56:36.797Z,1024.38
2023-01-25T11:57:36.767Z,1024.36
2023-01-25T11:58:36.734Z,1024.36
2023-01-25T11:59:36.736Z,1024.32
2023-01-25T12:00:36.748Z,1024.30
2023-01-25T12:01:36.709Z,1024.28
2023-01-25T12:02:36.840Z,1024.25
2023-01-25T12:03:36.691Z,1024.18
2023-01-25T12:04:36.688Z,1024.17
2023-01-25T12:05:36.698Z,1024.19